Time;durP1;ratioP1;P1;durP2;ratioP2;P2;SDS_P1;SDS_P2;PMS_P1;PMS_P2;Temp;Humidity;BMP_temperature;BMP_pressure;BME280_temperature;BME280_humidity;BME280_pressure;Samples;Min_cycle;Max_cycle;Signal;HPM_P1;HPM_P2
2022/07/30 00:00:53;;;;;;;9.53;5.77;;;;;;;23.63;100.00;63335.59;5089854;28;20200;-74
2022/07/30 00:03:21;;;;;;;7.07;4.77;;;;;;;23.54;100.00;63325.84;5081577;28;20576;-74
2022/07/30 00:05:48;;;;;;;5.93;4.53;;;;;;;23.34;100.00;63304.69;5071978;28;20204;-75
2022/07/30 00:08:15;;;;;;;8.70;5.20;;;;;;;23.05;100.00;63268.03;5071802;28;20261;-75
2022/07/30 00:10:45;;;;;;;11.93;6.73;;;;;;;23.36;100.00;63306.34;5071939;28;20196;-75
2022/07/30 00:13:12;;;;;;;16.57;8.23;;;;;;;23.31;100.00;63301.44;5075455;28;20200;-75
2022/07/30 00:15:39;;;;;;;16.60;10.63;;;;;;;23.12;100.00;63285.50;5087196;28;20669;-75
2022/07/30 00:18:07;;;;;;;13.37;7.10;;;;;;;23.00;100.00;63267.28;5089174;28;20233;-75
2022/07/30 00:20:34;;;;;;;7.37;4.93;;;;;;;23.20;100.00;63286.91;5058634;28;20196;-74
2022/07/30 00:23:04;;;;;;;7.80;3.93;;;;;;;23.16;100.00;63282.03;5071620;28;20706;-76
2022/07/30 00:25:31;;;;;;;6.50;4.10;;;;;;;23.16;100.00;63282.03;5072107;28;20649;-74
2022/07/30 00:28:00;;;;;;;4.63;3.80;;;;;;;23.17;100.00;63283.66;5086043;28;20196;-76
2022/07/30 00:30:27;;;;;;;8.00;3.90;;;;;;;23.46;100.00;63317.19;5072967;28;20224;-75
2022/07/30 00:32:54;;;;;;;8.33;4.80;;;;;;;23.16;100.00;63282.03;5083961;28;20202;-76
2022/07/30 00:35:23;;;;;;;7.07;4.53;;;;;;;22.14;100.00;63169.97;5071876;28;20620;-75
2022/07/30 00:37:51;;;;;;;8.83;4.70;;;;;;;22.92;100.00;63258.63;5071435;28;20223;-75
2022/07/30 00:40:18;;;;;;;9.73;4.97;;;;;;;22.90;100.00;63251.25;5058069;28;20192;-77
2022/07/30 00:42:47;;;;;;;16.40;8.67;;;;;;;22.92;100.00;63251.34;5072742;28;20200;-76
2022/07/30 00:45:17;;;;;;;12.40;8.43;;;;;;;23.00;100.00;63267.28;5077135;28;20196;-74
2022/07/30 00:47:44;;;;;;;13.13;7.00;;;;;;;22.36;100.00;63193.78;5073512;28;20211;-76
2022/07/30 00:50:14;;;;;;;11.63;4.93;;;;;;;22.90;100.00;63256.44;5072124;28;20206;-74
2022/07/30 00:52:42;;;;;;;7.90;4.37;;;;;;;22.95;100.00;63259.81;5071975;28;20261;-75
2022/07/30 00:55:11;;;;;;;8.03;4.47;;;;;;;22.95;100.00;63261.84;5070112;28;20566;-76
2022/07/30 00:57:38;;;;;;;5.37;4.67;;;;;;;22.36;100.00;63196.38;5070276;28;20216;-77
2022/07/30 01:00:09;;;;;;;5.73;3.90;;;;;;;22.97;100.00;63264.03;5070891;28;20196;-76
2022/07/30 01:02:38;;;;;;;6.37;4.23;;;;;;;22.95;100.00;63264.44;5080629;28;20199;-73
2022/07/30 01:05:05;;;;;;;4.57;3.80;;;;;;;22.84;100.00;63247.34;5076974;28;20197;-76
2022/07/30 01:07:34;;;;;;;5.90;3.67;;;;;;;22.56;100.00;63218.06;5083159;28;20214;-76
2022/07/30 01:10:01;;;;;;;6.83;3.93;;;;;;;22.91;100.00;63254.91;5057892;28;20207;-77
2022/07/30 01:12:29;;;;;;;6.30;3.77;;;;;;;22.96;100.00;63262.94;5071221;28;20199;-75
2022/07/30 01:14:57;;;;;;;21.07;6.00;;;;;;;22.92;100.00;63253.41;5070938;28;20206;-74
2022/07/30 01:17:25;;;;;;;20.23;5.70;;;;;;;22.83;100.00;63249.41;5070972;28;20266;-75
2022/07/30 01:19:57;;;;;;;12.47;4.37;;;;;;;22.75;100.00;63240.19;5071123;28;20249;-75
2022/07/30 01:22:40;;;;;;;9.43;3.97;;;;;;;22.76;100.00;63241.78;5058688;28;20228;-76
2022/07/30 01:25:14;;;;;;;6.67;4.10;;;;;;;22.64;100.00;63226.75;5071533;28;20302;-77
2022/07/30 01:27:47;;;;;;;9.67;4.90;;;;;;;22.63;100.00;63225.66;5071419;28;20211;-75
2022/07/30 01:30:16;;;;;;;7.53;4.90;;;;;;;22.61;100.00;63226.09;5073588;28;20232;-74
2022/07/30 01:32:45;;;;;;;6.97;4.50;;;;;;;22.57;100.00;63216.56;5074947;28;20204;-76
2022/07/30 01:35:14;;;;;;;8.43;4.00;;;;;;;22.57;100.00;63218.59;5086733;28;20282;-75
2022/07/30 01:37:45;;;;;;;9.30;4.33;;;;;;;22.60;100.00;63225.00;5079531;28;20252;-75
2022/07/30 01:40:13;;;;;;;5.33;4.57;;;;;;;21.72;100.00;63127.59;5082011;28;20333;-75
2022/07/30 01:42:43;;;;;;;5.60;4.17;;;;;;;22.58;100.00;63217.63;5085811;28;20218;-74
2022/07/30 01:45:12;;;;;;;6.70;4.67;;;;;;;22.57;100.00;63216.00;5096984;28;20202;-75
2022/07/30 01:47:43;;;;;;;7.30;5.00;;;;;;;22.55;100.00;63219.56;5074866;28;20192;-74
2022/07/30 01:50:13;;;;;;;9.93;5.40;;;;;;;22.57;100.00;63216.56;5074447;28;20196;-75
2022/07/30 01:52:43;;;;;;;7.17;5.10;;;;;;;22.53;100.00;63217.41;5084203;28;20207;-77
2022/07/30 01:55:16;;;;;;;9.43;6.27;;;;;;;22.50;100.00;63213.59;5094271;28;20207;-75
2022/07/30 01:57:47;;;;;;;11.53;7.67;;;;;;;22.38;100.00;63198.00;5079086;28;20220;-75
2022/07/30 02:00:14;;;;;;;10.03;5.77;;;;;;;22.38;100.00;63195.94;5074336;28;20208;-75
2022/07/30 02:02:42;;;;;;;14.37;6.37;;;;;;;22.51;100.00;63212.09;5074187;28;20204;-76
2022/07/30 02:05:09;;;;;;;8.40;5.70;;;;;;;22.28;100.00;63187.72;5078104;28;20218;-74
2022/07/30 02:07:41;;;;;;;9.77;5.90;;;;;;;22.21;100.00;63177.00;5087994;28;20196;-77
2022/07/30 02:10:13;;;;;;;10.60;5.10;;;;;;;22.04;100.00;63163.78;5074131;28;20261;-76
2022/07/30 02:12:47;;;;;;;9.63;5.87;;;;;;;21.87;100.00;63140.19;5074559;28;20192;-74
2022/07/30 02:15:22;;;;;;;10.43;4.80;;;;;;;21.83;100.00;63136.41;5074102;28;20250;-75
2022/07/30 02:18:00;;;;;;;10.20;4.77;;;;;;;21.45;100.00;63100.41;5073984;28;20230;-75
2022/07/30 02:20:31;;;;;;;14.87;5.90;;;;;;;22.00;100.00;63154.78;5074140;28;20195;-75
2022/07/30 02:23:02;;;;;;;7.97;5.10;;;;;;;21.67;100.00;63122.16;5074128;28;20220;-75
2022/07/30 02:25:32;;;;;;;11.10;4.67;;;;;;;22.03;100.00;63163.25;5085536;28;20203;-76
2022/07/30 02:28:08;;;;;;;5.93;4.70;;;;;;;21.87;100.00;63143.31;5080050;27;20203;-76
2022/07/30 02:30:37;;;;;;;7.00;4.87;;;;;;;21.89;100.00;63145.47;5087258;28;20311;-75
2022/07/30 02:33:09;;;;;;;8.27;5.10;;;;;;;21.70;100.00;63117.09;5087091;28;20196;-76
2022/07/30 02:35:38;;;;;;;8.27;6.00;;;;;;;21.66;100.00;63115.38;5080295;28;20250;-75
2022/07/30 02:38:07;;;;;;;6.50;5.17;;;;;;;20.82;100.00;63030.72;5093841;28;20226;-74
2022/07/30 02:40:34;;;;;;;7.37;5.30;;;;;;;21.09;100.00;63061.44;5090525;28;20210;-76
2022/07/30 02:43:03;;;;;;;5.30;4.73;;;;;;;21.53;100.00;63109.06;5073608;28;20212;-75
2022/07/30 02:45:31;;;;;;;6.40;4.53;;;;;;;21.50;100.00;63100.63;5074091;28;21400;-77
2022/07/30 02:48:02;;;;;;;7.07;4.40;;;;;;;20.32;100.00;62984.41;5073559;28;20196;-77
2022/07/30 02:50:31;;;;;;;7.60;4.73;;;;;;;21.41;100.00;63096.63;5073351;28;20204;-77
2022/07/30 02:53:01;;;;;;;6.53;4.70;;;;;;;21.47;100.00;63097.41;5073478;28;20204;-76
2022/07/30 02:55:33;;;;;;;5.80;4.93;;;;;;;20.61;100.00;63010.03;5073225;28;20200;-74
2022/07/30 02:58:03;;;;;;;6.57;4.70;;;;;;;21.31;100.00;63085.78;5073167;28;20299;-75
2022/07/30 03:00:32;;;;;;;8.97;4.63;;;;;;;21.24;100.00;63078.22;5073819;28;20208;-75
2022/07/30 03:03:02;;;;;;;9.17;5.23;;;;;;;21.34;100.00;63083.31;5073308;28;20199;-75
2022/07/30 03:05:29;;;;;;;5.03;4.40;;;;;;;21.10;100.00;63068.25;5073109;28;20218;-76
2022/07/30 03:08:00;;;;;;;4.70;4.23;;;;;;;21.40;100.00;63089.81;5073320;28;20666;-75
2022/07/30 03:10:28;;;;;;;11.50;4.63;;;;;;;21.13;100.00;63065.78;5073074;28;20257;-75
2022/07/30 03:12:56;;;;;;;8.20;4.57;;;;;;;21.13;100.00;63063.72;5073715;28;20204;-75
2022/07/30 03:15:28;;;;;;;4.90;4.40;;;;;;;21.04;100.00;63054.00;5093128;28;20589;-74
2022/07/30 03:17:56;;;;;;;9.33;4.60;;;;;;;21.01;100.00;63053.88;5092104;28;20240;-75
2022/07/30 03:20:28;;;;;;;8.57;4.60;;;;;;;21.16;100.00;63066.97;5091520;28;20208;-75
2022/07/30 03:22:58;;;;;;;6.60;4.37;;;;;;;21.04;100.00;63054.00;5091423;28;20223;-75
2022/07/30 03:25:27;;;;;;;11.27;4.80;;;;;;;21.01;100.00;63048.69;5091152;28;20207;-76
2022/07/30 03:27:56;;;;;;;9.33;4.50;;;;;;;21.23;100.00;63076.59;5091726;28;20199;-76
2022/07/30 03:30:27;;;;;;;8.70;4.53;;;;;;;20.87;100.00;63038.69;5091917;28;20284;-75
2022/07/30 03:32:55;;;;;;;12.00;5.67;;;;;;;20.53;100.00;62996.75;5091510;28;20215;-75
2022/07/30 03:35:23;;;;;;;13.73;7.80;;;;;;;20.38;100.00;62985.72;5078916;28;20199;-76
2022/07/30 03:37:51;;;;;;;14.77;7.33;;;;;;;20.77;100.00;63022.16;5066848;28;20280;-75
2022/07/30 03:40:19;;;;;;;12.37;7.50;;;;;;;20.23;100.00;62968.94;5093331;28;20192;-75
2022/07/30 03:42:47;;;;;;;10.70;6.97;;;;;;;20.78;100.00;63023.78;5081031;28;20254;-75
2022/07/30 03:45:15;;;;;;;14.23;7.10;;;;;;;20.68;100.00;63015.03;5078042;28;20195;-75
2022/07/30 03:47:46;;;;;;;13.17;7.60;;;;;;;20.67;100.00;63017.06;5079667;28;20211;-76
2022/07/30 03:50:14;;;;;;;11.23;7.07;;;;;;;19.96;100.00;62935.09;5059088;28;20586;-74
2022/07/30 03:52:42;;;;;;;8.63;6.80;;;;;;;20.66;100.00;63016.00;5078587;28;20736;-74
2022/07/30 03:55:11;;;;;;;11.27;7.40;;;;;;;20.15;100.00;62958.75;5071852;28;20204;-75
2022/07/30 03:57:39;;;;;;;12.50;6.67;;;;;;;20.68;100.00;63017.59;5071991;28;20220;-74
2022/07/30 04:00:12;;;;;;;15.77;6.80;;;;;;;20.02;100.00;62947.28;5072234;28;20196;-74
2022/07/30 04:02:45;;;;;;;17.20;7.43;;;;;;;20.62;100.00;63005.94;5084835;28;20278;-75
2022/07/30 04:05:13;;;;;;;33.90;18.50;;;;;;;20.65;100.00;63017.50;5074289;28;20196;-75
2022/07/30 04:07:41;;;;;;;25.93;14.67;;;;;;;20.17;100.00;62957.78;5072560;28;20203;-76
2022/07/30 04:10:10;;;;;;;24.77;12.33;;;;;;;20.53;100.00;62999.34;5079960;28;20641;-75
2022/07/30 04:12:37;;;;;;;28.23;15.00;;;;;;;19.32;100.00;62867.00;5089825;28;20195;-76
2022/07/30 04:15:05;;;;;;;23.40;12.40;;;;;;;20.56;100.00;62999.44;5076158;28;20754;-77
2022/07/30 04:17:38;;;;;;;20.90;11.60;;;;;;;21.28;100.00;63082.00;5092034;28;20199;-77
2022/07/30 04:20:14;;;;;;;22.57;9.40;;;;;;;21.23;100.00;63076.59;5070843;28;20210;-75
2022/07/30 04:22:42;;;;;;;16.57;7.43;;;;;;;21.51;100.00;63106.91;5085397;28;20215;-75
2022/07/30 04:25:10;;;;;;;17.33;7.43;;;;;;;21.13;100.00;63063.19;5065977;28;20199;-76
2022/07/30 04:27:39;;;;;;;13.33;6.73;;;;;;;21.32;100.00;63084.28;5090974;28;20203;-76
2022/07/30 04:30:07;;;;;;;10.40;6.60;;;;;;;21.77;100.00;63129.88;5093095;28;20238;-75
2022/07/30 04:32:36;;;;;;;9.77;6.13;;;;;;;21.71;100.00;63123.38;5093034;28;20203;-77
2022/07/30 04:35:05;;;;;;;9.97;5.83;;;;;;;21.63;100.00;63117.31;5091592;28;20658;-76
2022/07/30 04:37:34;;;;;;;11.00;6.60;;;;;;;21.73;100.00;63128.13;5090675;28;20758;-75
2022/07/30 04:40:01;;;;;;;10.13;6.20;;;;;;;21.70;100.00;63122.28;5081780;28;20196;-74
2022/07/30 04:42:29;;;;;;;8.73;5.67;;;;;;;21.54;100.00;63110.16;5087223;28;20208;-75
2022/07/30 04:44:59;;;;;;;12.73;6.20;;;;;;;21.90;100.00;63146.56;5082636;28;20192;-76
2022/07/30 04:47:28;;;;;;;10.37;5.83;;;;;;;22.18;100.00;63179.47;5071331;28;20238;-75
2022/07/30 04:49:56;;;;;;;8.93;5.47;;;;;;;22.37;100.00;63197.47;5071623;28;20207;-75
2022/07/30 04:52:24;;;;;;;15.07;5.87;;;;;;;22.56;100.00;63220.09;5071207;28;20200;-74
2022/07/30 04:54:56;;;;;;;9.50;5.50;;;;;;;22.35;100.00;63192.16;5071523;28;20208;-75
2022/07/30 04:57:27;;;;;;;7.30;5.43;;;;;;;22.53;100.00;63217.41;5071484;28;20188;-75
2022/07/30 04:59:54;;;;;;;7.93;5.20;;;;;;;22.57;100.00;63221.75;5074149;28;20223;-76
2022/07/30 05:02:24;;;;;;;15.50;5.50;;;;;;;22.87;100.00;63250.59;5091503;28;20264;-74
2022/07/30 05:04:52;;;;;;;8.90;5.70;;;;;;;22.80;100.00;63245.59;5079609;28;20662;-77
2022/07/30 05:07:21;;;;;;;8.47;5.20;;;;;;;22.83;100.00;63243.66;5091862;28;20585;-76
2022/07/30 05:09:50;;;;;;;11.20;5.67;;;;;;;22.90;100.00;63251.25;5075875;28;20589;-75
2022/07/30 05:12:19;;;;;;;9.27;5.97;;;;;;;23.09;100.00;63277.56;5075377;28;20196;-75
2022/07/30 05:14:47;;;;;;;11.00;5.70;;;;;;;23.03;100.00;63270.53;5075366;28;20240;-75
2022/07/30 05:17:14;;;;;;;9.33;5.57;;;;;;;22.99;100.00;63266.19;5075259;28;20683;-75
2022/07/30 05:19:41;;;;;;;9.87;5.87;;;;;;;22.74;100.00;63239.63;5075003;28;20251;-75
2022/07/30 05:22:09;;;;;;;11.07;5.93;;;;;;;23.22;100.00;63291.66;5074934;28;20309;-75
2022/07/30 05:24:36;;;;;;;12.00;6.10;;;;;;;23.43;100.00;63309.25;5084641;28;20245;-76
2022/07/30 05:27:04;;;;;;;15.23;6.03;;;;;;;23.61;100.00;63330.28;5078490;28;20655;-76
2022/07/30 05:29:32;;;;;;;11.90;6.27;;;;;;;23.83;100.00;63354.69;5075320;28;20230;-75
2022/07/30 05:32:00;;;;;;;14.90;7.33;;;;;;;24.03;100.00;63379.03;5075234;28;20196;-75
2022/07/30 05:34:27;;;;;;;12.13;6.47;;;;;;;24.27;100.00;63405.06;5075074;28;20625;-75
2022/07/30 05:39:41;;;;;;;9.83;6.63;;;;;;;24.45;100.00;63418.31;5081437;28;20230;-76
2022/07/30 05:42:08;;;;;;;10.13;6.87;;;;;;;24.50;100.00;63428.94;5077726;28;20208;-76
2022/07/30 05:44:37;;;;;;;8.90;6.37;;;;;;;24.65;100.00;63440.53;5090947;28;20298;-76
2022/07/30 05:47:05;;;;;;;13.77;6.60;;;;;;;24.11;100.00;63384.53;5094712;28;20291;-74
2022/07/30 05:49:33;;;;;;;9.33;5.47;;;;;;;24.84;100.00;63463.81;5093060;28;20191;-76
2022/07/30 05:52:01;;;;;;;9.00;6.50;;;;;;;24.78;100.00;63456.75;5094482;28;20193;-75
2022/07/30 05:54:31;;;;;;;9.37;6.30;;;;;;;24.38;100.00;63410.72;5076509;28;20227;-78
2022/07/30 05:56:59;;;;;;;14.07;5.90;;;;;;;24.44;100.00;63420.38;5074495;28;20656;-77
2022/07/30 05:59:26;;;;;;;5.37;4.60;;;;;;;24.28;100.00;63406.16;5079495;28;20222;-76
2022/07/30 06:01:56;;;;;;;6.33;4.87;;;;;;;24.99;100.00;63479.56;5082360;28;20208;-76
2022/07/30 06:04:23;;;;;;;7.97;4.30;;;;;;;24.58;100.00;63432.41;5074049;28;20192;-76
2022/07/30 06:06:51;;;;;;;6.23;4.77;;;;;;;25.71;100.00;63557.78;5087409;28;20189;-76
2022/07/30 06:09:18;;;;;;;5.93;5.17;;;;;;;25.87;100.00;63572.56;5074168;28;20663;-75
2022/07/30 06:11:46;;;;;;;6.27;4.83;;;;;;;25.87;100.00;63572.56;5074178;28;20192;-74
2022/07/30 06:14:14;;;;;;;7.57;5.00;;;;;;;26.17;100.00;63604.63;5086318;28;20195;-77
2022/07/30 06:16:42;;;;;;;8.70;5.30;;;;;;;25.91;100.00;63579.53;5093415;28;20194;-74
2022/07/30 06:19:12;;;;;;;8.37;4.87;;;;;;;26.69;100.00;63660.63;5081782;28;20592;-76
2022/07/30 06:21:39;;;;;;;7.03;4.80;;;;;;;27.13;100.00;63713.19;5074187;28;20188;-75
2022/07/30 06:24:07;;;;;;;8.47;4.30;;;;;;;27.30;100.00;63724.38;5073652;28;20705;-75
2022/07/30 06:26:34;;;;;;;8.10;5.03;;;;;;;27.37;100.00;63736.69;5073838;28;20211;-76
2022/07/30 06:29:02;;;;;;;10.13;4.83;;;;;;;27.47;100.00;63745.50;5074153;28;20200;-75
2022/07/30 06:31:30;;;;;;;7.83;4.77;;;;;;;27.83;100.00;63783.63;5073981;28;20197;-75
2022/07/30 06:33:57;;;;;;;7.00;4.47;;;;;;;28.07;100.00;63809.75;5074212;28;20669;-77
2022/07/30 06:36:27;;;;;;;7.37;4.60;;;;;;;28.32;100.00;63836.97;5074161;28;20373;-75
2022/07/30 06:38:54;;;;;;;13.07;4.80;;;;;;;28.30;100.00;63832.16;5074180;28;20231;-76
2022/07/30 06:41:22;;;;;;;5.03;4.30;;;;;;;28.42;100.00;63847.84;5074198;28;20212;-75
2022/07/30 06:43:51;;;;;;;13.93;5.40;;;;;;;28.43;100.00;63851.59;5074101;28;20201;-78
2022/07/30 06:46:19;;;;;;;6.73;4.60;;;;;;;28.74;100.00;63880.09;5073907;28;20254;-75
2022/07/30 06:48:47;;;;;;;5.67;4.80;;;;;;;28.43;100.00;63848.97;5074439;28;20576;-76
2022/07/30 06:51:15;;;;;;;9.83;6.40;;;;;;;28.67;100.00;63877.75;5074068;28;20216;-76
2022/07/30 06:53:44;;;;;;;5.40;4.90;;;;;;;28.92;100.00;63904.97;5074371;28;20192;-76
2022/07/30 06:56:11;;;;;;;6.27;4.80;;;;;;;28.84;100.00;63898.88;5073820;28;20677;-76
2022/07/30 06:58:39;;;;;;;7.23;4.73;;;;;;;28.14;100.00;63822.63;5074007;28;20220;-75
2022/07/30 07:01:10;;;;;;;5.83;4.60;;;;;;;28.32;100.00;63839.59;5073933;28;20555;-78
2022/07/30 07:03:38;;;;;;;5.20;4.67;;;;;;;27.96;100.00;63800.94;5073899;28;20207;-77
2022/07/30 07:06:06;;;;;;;10.13;4.53;;;;;;;28.80;100.00;63884.03;5084951;28;20203;-77
2022/07/30 07:08:35;;;;;;;8.67;4.70;;;;;;;28.56;100.00;63862.56;5092432;28;20249;-77
2022/07/30 07:11:05;;;;;;;6.23;4.10;;;;;;;28.12;100.00;63817.81;5093057;28;20199;-75
2022/07/30 07:13:32;;;;;;;6.97;4.47;;;;;;;28.20;100.00;63818.66;5073348;28;20203;-74
2022/07/30 07:16:00;;;;;;;7.10;4.53;;;;;;;28.65;100.00;63872.94;5072840;28;20209;-74
2022/07/30 07:18:27;;;;;;;9.30;4.53;;;;;;;28.72;100.00;63883.19;5071713;28;20622;-77
2022/07/30 07:20:54;;;;;;;5.47;4.40;;;;;;;28.99;100.00;63909.44;5073135;28;20209;-76
2022/07/30 07:23:22;;;;;;;5.13;4.43;;;;;;;28.55;100.00;63862.06;5080188;28;20219;-75
2022/07/30 07:25:48;;;;;;;5.40;4.30;;;;;;;29.19;100.00;63931.25;5092073;28;20689;-76
2022/07/30 07:28:18;;;;;;;5.00;4.33;;;;;;;29.33;100.00;63945.94;5091239;28;20199;-76
2022/07/30 07:30:45;;;;;;;7.03;4.57;;;;;;;29.28;100.00;63940.50;5091683;28;20243;-75
2022/07/30 07:33:12;;;;;;;6.17;4.30;;;;;;;29.48;100.00;63970.72;5092588;28;20195;-77
2022/07/30 07:35:41;;;;;;;4.97;4.20;;;;;;;29.52;100.00;63969.28;5094091;28;20192;-74
2022/07/30 07:38:09;;;;;;;5.73;4.50;;;;;;;29.90;100.00;64008.66;5077083;28;20197;-75
2022/07/30 07:40:36;;;;;;;10.63;4.63;;;;;;;29.79;100.00;63994.03;5072107;28;20228;-74
2022/07/30 07:43:04;;;;;;;8.50;4.33;;;;;;;29.49;100.00;63966.00;5083755;28;20200;-76
2022/07/30 07:45:33;;;;;;;8.00;5.00;;;;;;;29.80;100.00;63997.22;5072237;28;20282;-77
2022/07/30 07:48:01;;;;;;;5.80;4.10;;;;;;;29.96;100.00;64014.66;5071840;28;20205;-75
2022/07/30 07:50:28;;;;;;;9.20;4.43;;;;;;;30.19;100.00;64041.81;5071993;28;20192;-76
2022/07/30 07:52:55;;;;;;;6.13;4.40;;;;;;;30.06;100.00;64025.00;5085398;28;20260;-74
2022/07/30 07:55:22;;;;;;;8.27;4.03;;;;;;;30.09;100.00;64028.28;5091969;28;20205;-75
2022/07/30 07:57:50;;;;;;;5.10;4.00;;;;;;;30.21;100.00;64041.91;5091039;28;20282;-78
2022/07/30 08:00:18;;;;;;;6.77;4.27;;;;;;;30.29;100.00;64050.09;5081300;28;20537;-75
2022/07/30 08:02:47;;;;;;;7.57;4.37;;;;;;;30.53;100.00;64076.84;5072409;28;20276;-75
2022/07/30 08:05:15;;;;;;;4.77;4.37;;;;;;;30.52;100.00;64075.75;5076181;28;20225;-76
2022/07/30 08:07:43;;;;;;;10.00;4.57;;;;;;;30.66;100.00;64093.66;5091693;28;20260;-77
2022/07/30 08:10:12;;;;;;;7.00;4.50;;;;;;;30.43;100.00;64063.28;5092266;28;20248;-75
2022/07/30 08:12:40;;;;;;;10.00;4.47;;;;;;;30.80;100.00;64111.56;5092797;28;20202;-76
2022/07/30 08:15:09;;;;;;;7.80;4.67;;;;;;;30.99;100.00;64123.31;5090732;28;20205;-74
2022/07/30 08:17:41;;;;;;;6.33;5.10;;;;;;;31.19;100.00;64148.31;5090562;28;20197;-76
2022/07/30 08:20:11;;;;;;;6.57;4.00;;;;;;;31.35;100.00;64165.25;5082465;28;20698;-77
2022/07/30 08:22:38;;;;;;;9.07;4.87;;;;;;;31.10;100.00;64138.50;5074580;28;20215;-77
2022/07/30 08:25:07;;;;;;;6.90;4.60;;;;;;;31.33;100.00;64165.72;5081556;28;20563;-77
2022/07/30 08:27:34;;;;;;;6.87;4.10;;;;;;;31.54;100.00;64183.38;5071835;28;20558;-76
2022/07/30 08:30:04;;;;;;;4.60;3.90;;;;;;;31.97;100.00;64230.34;5071993;28;20224;-76
2022/07/30 08:32:31;;;;;;;6.20;3.83;;;;;;;32.04;100.00;64237.44;5071615;28;20670;-76
2022/07/30 08:35:06;;;;;;;6.27;4.60;;;;;;;32.10;100.00;64247.19;5072251;28;20193;-75
2022/07/30 08:37:35;;;;;;;6.23;4.33;;;;;;;32.03;100.00;64234.28;5072215;28;20192;-75
2022/07/30 08:40:02;;;;;;;7.43;4.27;;;;;;;31.78;100.00;64209.56;5070710;28;20255;-76
2022/07/30 08:42:29;;;;;;;7.37;4.83;;;;;;;31.36;100.00;64166.34;5071321;28;20204;-74
2022/07/30 08:44:58;;;;;;;7.13;4.70;;;;;;;32.53;100.00;64293.63;5071552;28;20211;-77
2022/07/30 08:47:31;;;;;;;7.77;4.57;;;;;;;32.53;100.00;64293.09;5071168;28;20211;-76
2022/07/30 08:50:03;;;;;;;6.33;4.17;;;;;;;31.90;100.00;64225.31;5071149;28;20644;-76
2022/07/30 08:52:31;;;;;;;12.73;4.37;;;;;;;32.34;100.00;64273.41;5071430;28;20619;-75
2022/07/30 08:55:00;;;;;;;9.03;4.17;;;;;;;32.39;100.00;64278.31;5090594;28;20192;-74
2022/07/30 08:57:29;;;;;;;5.10;4.10;;;;;;;32.57;100.00;64297.47;5090991;28;20224;-75
2022/07/30 08:59:58;;;;;;;4.70;4.17;;;;;;;32.78;100.00;64320.41;5064280;28;20220;-76
2022/07/30 09:02:25;;;;;;;6.27;3.93;;;;;;;32.81;100.00;64323.69;5077741;28;20205;-76
2022/07/30 09:04:52;;;;;;;5.80;4.40;;;;;;;32.58;100.00;64299.09;5075497;28;20200;-75
2022/07/30 09:07:21;;;;;;;5.33;4.30;;;;;;;33.11;100.00;64357.03;5070991;28;20217;-74
2022/07/30 09:09:48;;;;;;;8.40;4.77;;;;;;;33.15;100.00;64360.88;5086537;28;20212;-75
2022/07/30 09:12:37;;;;;;;6.27;4.77;;;;;;;32.35;100.00;64271.88;5091635;28;20216;-75
2022/07/30 09:15:07;;;;;;;6.83;4.10;;;;;;;32.80;100.00;64319.97;5072192;28;20675;-75
2022/07/30 09:17:52;;;;;;;5.07;4.17;;;;;;;33.16;100.00;64359.84;5071112;28;20198;-76
2022/07/30 09:20:20;;;;;;;5.00;3.97;;;;;;;33.82;100.00;64431.50;5071136;28;20241;-75
2022/07/30 09:22:50;;;;;;;6.00;4.47;;;;;;;33.48;100.00;64396.97;5071384;28;20233;-76
2022/07/30 09:25:32;;;;;;;8.27;4.03;;;;;;;33.92;100.00;64445.09;5071267;28;20195;-77
2022/07/30 09:28:01;;;;;;;5.53;4.50;;;;;;;34.05;100.00;64456.69;5084086;28;20196;-76
2022/07/30 09:30:43;;;;;;;4.83;3.70;;;;;;;33.39;100.00;64386.56;5083591;28;20583;-77
2022/07/30 09:33:11;;;;;;;7.07;4.27;;;;;;;33.75;100.00;64426.50;5089009;28;20288;-74
2022/07/30 09:35:39;;;;;;;5.13;4.30;;;;;;;33.43;100.00;64391.47;5076410;28;20213;-77
2022/07/30 09:38:07;;;;;;;4.17;3.77;;;;;;;34.10;100.00;64463.69;5064929;28;20208;-76
2022/07/30 09:40:34;;;;;;;5.60;4.30;;;;;;;33.68;100.00;64421.50;5076992;28;20224;-77
2022/07/30 09:43:06;;;;;;;5.10;4.13;;;;;;;33.71;100.00;64422.13;5071571;28;20310;-75
2022/07/30 09:45:35;;;;;;;6.77;4.70;;;;;;;33.97;100.00;64447.91;5070941;28;20647;-75
2022/07/30 09:48:19;;;;;;;4.57;4.10;;;;;;;33.85;98.78;64437.44;5074062;28;20215;-77
2022/07/30 09:50:48;;;;;;;8.50;4.20;;;;;;;34.54;97.79;64511.88;5073103;28;20203;-75
2022/07/30 09:53:16;;;;;;;6.37;4.20;;;;;;;34.28;100.00;64486.03;5074641;28;20627;-77
2022/07/30 09:55:43;;;;;;;7.03;4.63;;;;;;;33.94;100.00;64449.38;5075145;28;20199;-76
2022/07/30 09:58:12;;;;;;;4.80;4.30;;;;;;;34.11;100.00;64462.16;5075276;28;20200;-76
2022/07/30 10:00:40;;;;;;;6.87;5.70;;;;;;;33.49;100.00;64398.06;5074480;28;20232;-76
2022/07/30 10:03:19;;;;;;;7.43;5.63;;;;;;;34.48;100.00;64505.31;5067616;28;20196;-76
2022/07/30 10:05:54;;;;;;;5.30;4.50;;;;;;;34.45;99.59;64502.53;5083704;28;20208;-77
2022/07/30 10:08:37;;;;;;;6.60;4.30;;;;;;;34.49;97.68;64506.94;5080671;28;20512;-76
2022/07/30 10:11:07;;;;;;;5.13;4.47;;;;;;;34.20;95.15;64474.63;5094725;28;20195;-75
2022/07/30 10:13:36;;;;;;;5.70;4.47;;;;;;;34.53;100.00;64505.50;5067508;28;20199;-77
2022/07/30 10:16:05;;;;;;;5.73;4.83;;;;;;;34.81;92.07;64541.44;5093614;28;20249;-75
2022/07/30 10:18:33;;;;;;;6.97;4.90;;;;;;;34.08;94.97;64461.50;5073927;28;20731;-77
2022/07/30 10:21:02;;;;;;;6.93;4.83;;;;;;;34.25;96.08;64477.47;5074772;28;20232;-76
2022/07/30 10:23:31;;;;;;;5.20;4.70;;;;;;;34.61;89.39;64520.06;5073268;28;20226;-78
2022/07/30 10:25:59;;;;;;;4.97;4.57;;;;;;;34.00;87.75;64451.22;5075248;28;20204;-77
2022/07/30 10:28:28;;;;;;;5.10;4.60;;;;;;;34.62;87.78;64521.16;5074582;28;20205;-76
2022/07/30 10:30:58;;;;;;;5.20;4.57;;;;;;;34.05;85.53;64456.69;5074701;28;20233;-75
2022/07/30 10:33:27;;;;;;;5.20;4.70;;;;;;;34.86;95.19;64544.25;5074461;28;20722;-77
2022/07/30 10:35:56;;;;;;;5.43;4.97;;;;;;;35.25;83.82;64589.63;5074947;28;20206;-76
2022/07/30 10:38:31;;;;;;;6.07;4.90;;;;;;;35.37;81.74;64602.75;5074216;28;20547;-76
2022/07/30 10:41:05;;;;;;;5.00;4.57;;;;;;;35.02;79.38;64561.78;5074537;28;20226;-76
2022/07/30 10:44:04;;;;;;;5.70;5.20;;;;;;;35.11;76.91;64579.59;5073706;28;20210;-75
2022/07/30 10:46:49;;;;;;;8.07;4.87;;;;;;;34.94;79.73;64555.66;5083475;28;20205;-77
2022/07/30 10:49:17;;;;;;;7.27;4.70;;;;;;;34.90;80.97;64551.28;5080707;28;20197;-77
2022/07/30 10:51:46;;;;;;;5.40;5.00;;;;;;;35.10;84.89;64570.53;5092996;28;20199;-75
2022/07/30 10:54:40;;;;;;;6.87;6.17;;;;;;;35.44;79.66;64613.06;5078236;28;20195;-75
2022/07/30 10:57:11;;;;;;;8.23;7.00;;;;;;;35.47;80.20;64613.72;5084767;28;20297;-75
2022/07/30 11:00:10;;;;;;;7.83;7.03;;;;;;;35.94;80.71;64667.31;5081462;28;20206;-74
2022/07/30 11:02:39;;;;;;;7.90;7.10;;;;;;;36.35;73.00;64703.75;5073647;28;20199;-79
2022/07/30 11:05:25;;;;;;;6.10;5.50;;;;;;;35.65;75.79;64638.75;5076856;28;20201;-78
2022/07/30 11:07:51;;;;;;;9.63;6.53;;;;;;;35.27;78.72;64591.81;5079556;28;20681;-77
2022/07/30 11:10:36;;;;;;;9.07;8.00;;;;;;;35.27;78.61;64591.25;5078931;28;20199;-76
2022/07/30 11:13:04;;;;;;;7.37;6.67;;;;;;;35.87;75.88;64659.09;5092252;28;20211;-75
2022/07/30 11:15:57;;;;;;;9.33;8.00;;;;;;;36.14;76.64;64678.63;5092993;28;20208;-77
2022/07/30 11:18:26;;;;;;;8.00;7.23;;;;;;;36.07;77.14;64678.38;5073762;28;20211;-77
2022/07/30 11:21:19;;;;;;;8.47;6.50;;;;;;;36.13;75.73;64687.59;5090733;28;20221;-75
2022/07/30 11:23:47;;;;;;;9.70;6.37;;;;;;;35.93;76.05;64668.88;5078854;28;20227;-77
2022/07/30 11:26:48;;;;;;;10.17;7.00;;;;;;;36.61;73.97;64737.56;5082596;28;20651;-76
2022/07/30 11:29:39;;;;;;;8.10;6.10;;;;;;;36.36;78.04;64713.34;5068217;28;20675;-77
2022/07/30 11:32:28;;;;;;;9.10;6.63;;;;;;;36.18;72.99;64690.44;5072623;28;20200;-76
2022/07/30 11:35:19;;;;;;;10.00;6.97;;;;;;;36.55;73.24;64728.34;5072982;28;20196;-75
2022/07/30 11:38:00;;;;;;;7.70;7.00;;;;;;;36.56;72.26;64726.22;5076992;28;20284;-75
2022/07/30 11:40:29;;;;;;;10.07;7.40;;;;;;;36.63;71.25;64739.19;5092342;28;20230;-78